sensor_id;sensor_type;location;lat;lon;timestamp;P1;durP1;ratioP1;P2;durP2;ratioP2
72639;SDS011;60683;51.730;8.762;2022-10-16T00:01:05;4.32;;;2.10;;
72639;SDS011;60683;51.730;8.762;2022-10-16T00:03:35;5.05;;;2.28;;
72639;SDS011;60683;51.730;8.762;2022-10-16T00:06:02;4.70;;;2.40;;
72639;SDS011;60683;51.730;8.762;2022-10-16T00:08:30;5.28;;;2.30;;
72639;SDS011;60683;51.730;8.762;2022-10-16T00:10:58;5.22;;;2.42;;
72639;SDS011;60683;51.730;8.762;2022-10-16T00:13:27;4.07;;;2.17;;
72639;SDS011;60683;51.730;8.762;2022-10-16T00:15:55;4.40;;;2.20;;
72639;SDS011;60683;51.730;8.762;2022-10-16T00:18:24;3.88;;;2.17;;
72639;SDS011;60683;51.730;8.762;2022-10-16T00:20:52;6.35;;;2.55;;
72639;SDS011;60683;51.730;8.762;2022-10-16T00:23:19;8.95;;;2.63;;
72639;SDS011;60683;51.730;8.762;2022-10-16T00:25:53;6.18;;;2.75;;
72639;SDS011;60683;51.730;8.762;2022-10-16T00:28:21;4.43;;;2.28;;
72639;SDS011;60683;51.730;8.762;2022-10-16T00:30:49;4.40;;;2.42;;
72639;SDS011;60683;51.730;8.762;2022-10-16T00:33:16;4.72;;;2.00;;
72639;SDS011;60683;51.730;8.762;2022-10-16T00:35:45;5.22;;;2.50;;
72639;SDS011;60683;51.730;8.762;2022-10-16T00:38:12;5.47;;;2.50;;
72639;SDS011;60683;51.730;8.762;2022-10-16T00:40:40;5.28;;;2.63;;
72639;SDS011;60683;51.730;8.762;2022-10-16T00:43:11;7.00;;;2.58;;
72639;SDS011;60683;51.730;8.762;2022-10-16T00:45:40;4.80;;;2.38;;
72639;SDS011;60683;51.730;8.762;2022-10-16T00:48:11;7.95;;;2.75;;
72639;SDS011;60683;51.730;8.762;2022-10-16T00:50:41;4.40;;;2.25;;
72639;SDS011;60683;51.730;8.762;2022-10-16T00:53:11;5.53;;;2.95;;
72639;SDS011;60683;51.730;8.762;2022-10-16T00:55:39;5.55;;;2.65;;
72639;SDS011;60683;51.730;8.762;2022-10-16T00:58:06;5.95;;;2.20;;
72639;SDS011;60683;51.730;8.762;2022-10-16T01:00:34;5.18;;;2.22;;
72639;SDS011;60683;51.730;8.762;2022-10-16T01:03:01;5.13;;;2.42;;
72639;SDS011;60683;51.730;8.762;2022-10-16T01:05:30;3.83;;;2.28;;
72639;SDS011;60683;51.730;8.762;2022-10-16T01:08:02;5.45;;;1.77;;
72639;SDS011;60683;51.730;8.762;2022-10-16T01:10:35;5.40;;;2.30;;
72639;SDS011;60683;51.730;8.762;2022-10-16T01:13:05;5.28;;;2.42;;
72639;SDS011;60683;51.730;8.762;2022-10-16T01:15:35;4.50;;;2.30;;
72639;SDS011;60683;51.730;8.762;2022-10-16T01:18:05;5.40;;;2.25;;
72639;SDS011;60683;51.730;8.762;2022-10-16T01:24:37;6.35;;;2.13;;
72639;SDS011;60683;51.730;8.762;2022-10-16T01:27:10;4.15;;;2.50;;
72639;SDS011;60683;51.730;8.762;2022-10-16T01:29:40;4.32;;;2.03;;
72639;SDS011;60683;51.730;8.762;2022-10-16T01:32:14;3.75;;;1.90;;
72639;SDS011;60683;51.730;8.762;2022-10-16T01:34:46;3.47;;;2.03;;
72639;SDS011;60683;51.730;8.762;2022-10-16T01:37:16;3.03;;;1.70;;
72639;SDS011;60683;51.730;8.762;2022-10-16T01:39:48;5.90;;;1.92;;
72639;SDS011;60683;51.730;8.762;2022-10-16T01:42:19;4.10;;;1.83;;
72639;SDS011;60683;51.730;8.762;2022-10-16T01:44:48;3.97;;;1.98;;
72639;SDS011;60683;51.730;8.762;2022-10-16T01:47:16;3.75;;;1.60;;
72639;SDS011;60683;51.730;8.762;2022-10-16T01:49:44;4.70;;;1.95;;
72639;SDS011;60683;51.730;8.762;2022-10-16T01:52:13;3.90;;;1.73;;
72639;SDS011;60683;51.730;8.762;2022-10-16T01:54:42;4.45;;;1.70;;
72639;SDS011;60683;51.730;8.762;2022-10-16T01:57:11;3.58;;;1.60;;
72639;SDS011;60683;51.730;8.762;2022-10-16T01:59:41;3.83;;;1.58;;
72639;SDS011;60683;51.730;8.762;2022-10-16T02:02:10;3.78;;;1.45;;
72639;SDS011;60683;51.730;8.762;2022-10-16T02:04:39;4.10;;;1.58;;
72639;SDS011;60683;51.730;8.762;2022-10-16T02:07:10;2.75;;;1.38;;
72639;SDS011;60683;51.730;8.762;2022-10-16T02:09:37;5.03;;;1.75;;
72639;SDS011;60683;51.730;8.762;2022-10-16T02:12:06;3.67;;;1.67;;
72639;SDS011;60683;51.730;8.762;2022-10-16T02:14:37;5.40;;;1.63;;
72639;SDS011;60683;51.730;8.762;2022-10-16T02:17:11;3.80;;;1.23;;
72639;SDS011;60683;51.730;8.762;2022-10-16T02:19:39;2.25;;;1.20;;
72639;SDS011;60683;51.730;8.762;2022-10-16T02:22:08;3.38;;;1.20;;
72639;SDS011;60683;51.730;8.762;2022-10-16T02:24:39;2.97;;;1.20;;
72639;SDS011;60683;51.730;8.762;2022-10-16T02:27:11;2.88;;;1.20;;
72639;SDS011;60683;51.730;8.762;2022-10-16T02:29:40;3.58;;;1.17;;
72639;SDS011;60683;51.730;8.762;2022-10-16T02:32:13;1.95;;;1.08;;
72639;SDS011;60683;51.730;8.762;2022-10-16T02:34:42;2.75;;;1.20;;
72639;SDS011;60683;51.730;8.762;2022-10-16T02:37:11;3.00;;;1.23;;
72639;SDS011;60683;51.730;8.762;2022-10-16T02:39:38;2.67;;;1.30;;
72639;SDS011;60683;51.730;8.762;2022-10-16T02:42:09;2.53;;;1.25;;
72639;SDS011;60683;51.730;8.762;2022-10-16T02:44:37;3.38;;;1.42;;
72639;SDS011;60683;51.730;8.762;2022-10-16T02:47:04;2.60;;;1.20;;
72639;SDS011;60683;51.730;8.762;2022-10-16T02:49:33;3.38;;;1.10;;
72639;SDS011;60683;51.730;8.762;2022-10-16T02:52:00;3.33;;;1.13;;
72639;SDS011;60683;51.730;8.762;2022-10-16T02:54:27;2.33;;;1.20;;
72639;SDS011;60683;51.730;8.762;2022-10-16T02:56:55;4.15;;;1.50;;
72639;SDS011;60683;51.730;8.762;2022-10-16T02:59:22;4.13;;;1.20;;
72639;SDS011;60683;51.730;8.762;2022-10-16T03:01:49;2.38;;;1.10;;
72639;SDS011;60683;51.730;8.762;2022-10-16T03:04:17;3.28;;;1.20;;
72639;SDS011;60683;51.730;8.762;2022-10-16T03:06:45;3.83;;;1.30;;
72639;SDS011;60683;51.730;8.762;2022-10-16T03:09:13;2.75;;;1.08;;
72639;SDS011;60683;51.730;8.762;2022-10-16T03:11:40;3.47;;;1.20;;
72639;SDS011;60683;51.730;8.762;2022-10-16T03:14:07;3.92;;;1.60;;
72639;SDS011;60683;51.730;8.762;2022-10-16T03:16:35;3.90;;;1.50;;
72639;SDS011;60683;51.730;8.762;2022-10-16T03:19:02;3.13;;;1.23;;
72639;SDS011;60683;51.730;8.762;2022-10-16T03:21:30;3.85;;;1.10;;
72639;SDS011;60683;51.730;8.762;2022-10-16T03:23:58;3.50;;;1.23;;
72639;SDS011;60683;51.730;8.762;2022-10-16T03:26:26;2.85;;;1.30;;
72639;SDS011;60683;51.730;8.762;2022-10-16T03:28:53;2.83;;;1.02;;
72639;SDS011;60683;51.730;8.762;2022-10-16T03:31:21;2.90;;;1.20;;
72639;SDS011;60683;51.730;8.762;2022-10-16T03:33:48;3.25;;;1.38;;
72639;SDS011;60683;51.730;8.762;2022-10-16T03:36:15;2.28;;;1.08;;
72639;SDS011;60683;51.730;8.762;2022-10-16T03:38:43;3.05;;;1.58;;
72639;SDS011;60683;51.730;8.762;2022-10-16T03:41:11;2.90;;;1.30;;
72639;SDS011;60683;51.730;8.762;2022-10-16T03:47:38;2.60;;;1.30;;
72639;SDS011;60683;51.730;8.762;2022-10-16T03:50:06;2.80;;;1.27;;
72639;SDS011;60683;51.730;8.762;2022-10-16T03:52:34;3.70;;;1.58;;
72639;SDS011;60683;51.730;8.762;2022-10-16T03:55:01;3.17;;;1.35;;
72639;SDS011;60683;51.730;8.762;2022-10-16T03:57:30;2.83;;;1.50;;
72639;SDS011;60683;51.730;8.762;2022-10-16T03:59:57;4.60;;;1.40;;
72639;SDS011;60683;51.730;8.762;2022-10-16T04:02:25;3.53;;;1.73;;
72639;SDS011;60683;51.730;8.762;2022-10-16T04:04:52;3.50;;;1.27;;
72639;SDS011;60683;51.730;8.762;2022-10-16T04:07:20;3.00;;;1.45;;
72639;SDS011;60683;51.730;8.762;2022-10-16T04:09:47;2.70;;;1.25;;
72639;SDS011;60683;51.730;8.762;2022-10-16T04:12:14;2.53;;;1.15;;
72639;SDS011;60683;51.730;8.762;2022-10-16T04:14:43;3.13;;;1.38;;
72639;SDS011;60683;51.730;8.762;2022-10-16T04:17:10;2.95;;;1.40;;
72639;SDS011;60683;51.730;8.762;2022-10-16T04:19:38;3.00;;;1.40;;
72639;SDS011;60683;51.730;8.762;2022-10-16T04:22:05;3.80;;;1.50;;
72639;SDS011;60683;51.730;8.762;2022-10-16T04:24:32;2.53;;;1.40;;
72639;SDS011;60683;51.730;8.762;2022-10-16T04:27:00;2.83;;;1.35;;
72639;SDS011;60683;51.730;8.762;2022-10-16T04:29:27;2.33;;;1.08;;
72639;SDS011;60683;51.730;8.762;2022-10-16T04:31:56;3.40;;;1.30;;
72639;SDS011;60683;51.730;8.762;2022-10-16T04:34:23;2.63;;;1.33;;
72639;SDS011;60683;51.730;8.762;2022-10-16T04:36:51;3.17;;;1.30;;
72639;SDS011;60683;51.730;8.762;2022-10-16T04:39:18;2.50;;;1.38;;
72639;SDS011;60683;51.730;8.762;2022-10-16T04:41:45;3.42;;;1.30;;
72639;SDS011;60683;51.730;8.762;2022-10-16T04:44:13;3.55;;;2.03;;
72639;SDS011;60683;51.730;8.762;2022-10-16T04:46:40;2.67;;;1.17;;
72639;SDS011;60683;51.730;8.762;2022-10-16T04:49:09;2.50;;;1.20;;
72639;SDS011;60683;51.730;8.762;2022-10-16T04:51:36;2.85;;;1.20;;
72639;SDS011;60683;51.730;8.762;2022-10-16T04:54:04;6.32;;;1.45;;
72639;SDS011;60683;51.730;8.762;2022-10-16T04:56:31;5.63;;;1.27;;
72639;SDS011;60683;51.730;8.762;2022-10-16T04:58:58;2.47;;;1.10;;
72639;SDS011;60683;51.730;8.762;2022-10-16T05:01:26;2.33;;;1.42;;
72639;SDS011;60683;51.730;8.762;2022-10-16T05:03:53;3.05;;;0.95;;
72639;SDS011;60683;51.730;8.762;2022-10-16T05:06:22;2.50;;;1.02;;
72639;SDS011;60683;51.730;8.762;2022-10-16T05:08:49;2.65;;;1.20;;
72639;SDS011;60683;51.730;8.762;2022-10-16T05:11:16;2.35;;;1.02;;
72639;SDS011;60683;51.730;8.762;2022-10-16T05:13:44;4.72;;;1.60;;
72639;SDS011;60683;51.730;8.762;2022-10-16T05:16:11;5.15;;;1.55;;
72639;SDS011;60683;51.730;8.762;2022-10-16T05:18:38;2.70;;;1.13;;
72639;SDS011;60683;51.730;8.762;2022-10-16T05:21:05;2.78;;;1.27;;
72639;SDS011;60683;51.730;8.762;2022-10-16T05:23:34;2.50;;;1.00;;
72639;SDS011;60683;51.730;8.762;2022-10-16T05:26:02;2.10;;;1.08;;
72639;SDS011;60683;51.730;8.762;2022-10-16T05:28:29;2.30;;;1.10;;
72639;SDS011;60683;51.730;8.762;2022-10-16T05:30:57;2.28;;;1.00;;
72639;SDS011;60683;51.730;8.762;2022-10-16T05:33:25;2.65;;;1.30;;
72639;SDS011;60683;51.730;8.762;2022-10-16T05:35:52;3.65;;;0.93;;
72639;SDS011;60683;51.730;8.762;2022-10-16T05:38:20;2.30;;;1.00;;
72639;SDS011;60683;51.730;8.762;2022-10-16T05:40:51;3.85;;;1.20;;
72639;SDS011;60683;51.730;8.762;2022-10-16T05:43:19;2.35;;;1.13;;
72639;SDS011;60683;51.730;8.762;2022-10-16T05:45:53;1.55;;;0.77;;
72639;SDS011;60683;51.730;8.762;2022-10-16T05:48:21;2.13;;;1.38;;
72639;SDS011;60683;51.730;8.762;2022-10-16T05:50:55;2.22;;;1.13;;
72639;SDS011;60683;51.730;8.762;2022-10-16T05:53:24;1.80;;;1.02;;
72639;SDS011;60683;51.730;8.762;2022-10-16T05:55:53;3.33;;;1.10;;
72639;SDS011;60683;51.730;8.762;2022-10-16T05:58:22;3.13;;;1.20;;
72639;SDS011;60683;51.730;8.762;2022-10-16T06:00:53;2.72;;;1.20;;
72639;SDS011;60683;51.730;8.762;2022-10-16T06:03:21;2.60;;;1.05;;
72639;SDS011;60683;51.730;8.762;2022-10-16T06:05:48;3.40;;;0.90;;
72639;SDS011;60683;51.730;8.762;2022-10-16T06:08:16;2.78;;;1.20;;
72639;SDS011;60683;51.730;8.762;2022-10-16T06:10:43;2.63;;;1.10;;
72639;SDS011;60683;51.730;8.762;2022-10-16T06:13:13;3.70;;;1.10;;
72639;SDS011;60683;51.730;8.762;2022-10-16T06:15:41;2.70;;;1.00;;
72639;SDS011;60683;51.730;8.762;2022-10-16T06:18:09;2.17;;;0.95;;
72639;SDS011;60683;51.730;8.762;2022-10-16T06:20:36;4.10;;;1.45;;
72639;SDS011;60683;51.730;8.762;2022-10-16T06:23:04;4.63;;;1.02;;
72639;SDS011;60683;51.730;8.762;2022-10-16T06:25:31;2.42;;;1.17;;
72639;SDS011;60683;51.730;8.762;2022-10-16T06:27:59;2.33;;;1.27;;
72639;SDS011;60683;51.730;8.762;2022-10-16T06:30:27;2.42;;;1.17;;
72639;SDS011;60683;51.730;8.762;2022-10-16T06:32:55;2.28;;;0.98;;
72639;SDS011;60683;51.730;8.762;2022-10-16T06:35:22;4.47;;;1.10;;
72639;SDS011;60683;51.730;8.762;2022-10-16T06:37:52;2.55;;;1.17;;
72639;SDS011;60683;51.730;8.762;2022-10-16T06:40:19;1.50;;;0.80;;
72639;SDS011;60683;51.730;8.762;2022-10-16T06:42:46;1.98;;;1.00;;
72639;SDS011;60683;51.730;8.762;2022-10-16T06:45:14;1.80;;;1.00;;
72639;SDS011;60683;51.730;8.762;2022-10-16T06:47:42;2.60;;;0.93;;
72639;SDS011;60683;51.730;8.762;2022-10-16T06:50:10;3.10;;;1.27;;
72639;SDS011;60683;51.730;8.762;2022-10-16T06:52:37;2.50;;;0.90;;
72639;SDS011;60683;51.730;8.762;2022-10-16T06:55:05;2.65;;;1.13;;
72639;SDS011;60683;51.730;8.762;2022-10-16T06:57:32;2.40;;;0.98;;
72639;SDS011;60683;51.730;8.762;2022-10-16T07:00:00;3.08;;;1.58;;
72639;SDS011;60683;51.730;8.762;2022-10-16T07:02:27;3.75;;;1.20;;
72639;SDS011;60683;51.730;8.762;2022-10-16T07:04:56;2.08;;;1.20;;
72639;SDS011;60683;51.730;8.762;2022-10-16T07:07:23;3.95;;;1.42;;
72639;SDS011;60683;51.730;8.762;2022-10-16T07:09:52;3.00;;;1.27;;
72639;SDS011;60683;51.730;8.762;2022-10-16T07:12:19;3.95;;;1.15;;
72639;SDS011;60683;51.730;8.762;2022-10-16T07:14:46;3.60;;;1.33;;
72639;SDS011;60683;51.730;8.762;2022-10-16T07:17:14;2.38;;;1.10;;
72639;SDS011;60683;51.730;8.762;2022-10-16T07:19:41;3.97;;;1.83;;
72639;SDS011;60683;51.730;8.762;2022-10-16T07:22:10;4.65;;;1.23;;
72639;SDS011;60683;51.730;8.762;2022-10-16T07:24:37;2.95;;;1.38;;
72639;SDS011;60683;51.730;8.762;2022-10-16T07:27:05;2.90;;;1.60;;
72639;SDS011;60683;51.730;8.762;2022-10-16T07:29:32;1.88;;;0.82;;
72639;SDS011;60683;51.730;8.762;2022-10-16T07:31:59;3.13;;;1.63;;
72639;SDS011;60683;51.730;8.762;2022-10-16T07:34:28;3.00;;;1.48;;
72639;SDS011;60683;51.730;8.762;2022-10-16T07:36:56;2.58;;;1.20;;
72639;SDS011;60683;51.730;8.762;2022-10-16T07:39:24;3.10;;;1.75;;
72639;SDS011;60683;51.730;8.762;2022-10-16T07:41:52;3.22;;;1.90;;
72639;SDS011;60683;51.730;8.762;2022-10-16T07:44:19;3.78;;;1.50;;
72639;SDS011;60683;51.730;8.762;2022-10-16T07:46:46;2.78;;;1.40;;
72639;SDS011;60683;51.730;8.762;2022-10-16T07:49:13;2.42;;;1.23;;
72639;SDS011;60683;51.730;8.762;2022-10-16T07:51:41;3.75;;;1.42;;
72639;SDS011;60683;51.730;8.762;2022-10-16T07:54:08;2.90;;;1.50;;
72639;SDS011;60683;51.730;8.762;2022-10-16T07:56:37;4.25;;;1.70;;
72639;SDS011;60683;51.730;8.762;2022-10-16T07:59:05;3.03;;;1.67;;
72639;SDS011;60683;51.730;8.762;2022-10-16T08:01:32;2.72;;;1.52;;
72639;SDS011;60683;51.730;8.762;2022-10-16T08:03:59;2.58;;;1.30;;
72639;SDS011;60683;51.730;8.762;2022-10-16T08:06:27;2.55;;;1.30;;
72639;SDS011;60683;51.730;8.762;2022-10-16T08:08:54;2.83;;;1.30;;
72639;SDS011;60683;51.730;8.762;2022-10-16T08:11:22;2.45;;;1.05;;
72639;SDS011;60683;51.730;8.762;2022-10-16T08:13:51;1.98;;;0.88;;
72639;SDS011;60683;51.730;8.762;2022-10-16T08:16:19;2.97;;;1.27;;
72639;SDS011;60683;51.730;8.762;2022-10-16T08:18:46;5.35;;;1.27;;
72639;SDS011;60683;51.730;8.762;2022-10-16T08:21:14;1.63;;;0.80;;
72639;SDS011;60683;51.730;8.762;2022-10-16T08:23:42;2.10;;;0.95;;
72639;SDS011;60683;51.730;8.762;2022-10-16T08:26:10;3.65;;;1.02;;
72639;SDS011;60683;51.730;8.762;2022-10-16T08:28:38;2.63;;;1.20;;
72639;SDS011;60683;51.730;8.762;2022-10-16T08:31:08;2.63;;;0.98;;
72639;SDS011;60683;51.730;8.762;2022-10-16T08:33:36;1.27;;;0.60;;
72639;SDS011;60683;51.730;8.762;2022-10-16T08:36:04;3.20;;;1.30;;
72639;SDS011;60683;51.730;8.762;2022-10-16T08:38:32;2.50;;;0.90;;
72639;SDS011;60683;51.730;8.762;2022-10-16T08:41:02;2.33;;;1.00;;
72639;SDS011;60683;51.730;8.762;2022-10-16T08:43:44;2.25;;;1.10;;
72639;SDS011;60683;51.730;8.762;2022-10-16T08:46:26;1.70;;;0.90;;
72639;SDS011;60683;51.730;8.762;2022-10-16T08:49:00;1.95;;;1.00;;
72639;SDS011;60683;51.730;8.762;2022-10-16T08:51:30;1.90;;;1.00;;
72639;SDS011;60683;51.730;8.762;2022-10-16T08:54:01;2.83;;;1.08;;
72639;SDS011;60683;51.730;8.762;2022-10-16T08:56:30;2.50;;;0.93;;
72639;SDS011;60683;51.730;8.762;2022-10-16T08:58:59;2.58;;;0.93;;
72639;SDS011;60683;51.730;8.762;2022-10-16T09:01:32;2.40;;;1.10;;
72639;SDS011;60683;51.730;8.762;2022-10-16T09:04:14;3.13;;;1.13;;
72639;SDS011;60683;51.730;8.762;2022-10-16T09:06:54;1.63;;;0.90;;
72639;SDS011;60683;51.730;8.762;2022-10-16T09:09:27;2.55;;;0.90;;
72639;SDS011;60683;51.730;8.762;2022-10-16T09:12:01;2.17;;;0.77;;
72639;SDS011;60683;51.730;8.762;2022-10-16T09:14:39;1.80;;;0.95;;
72639;SDS011;60683;51.730;8.762;2022-10-16T09:17:17;2.70;;;1.23;;
72639;SDS011;60683;51.730;8.762;2022-10-16T09:19:51;2.15;;;0.77;;
72639;SDS011;60683;51.730;8.762;2022-10-16T09:22:21;1.38;;;0.90;;
72639;SDS011;60683;51.730;8.762;2022-10-16T09:24:52;5.47;;;1.10;;
72639;SDS011;60683;51.730;8.762;2022-10-16T09:27:19;1.88;;;0.82;;
72639;SDS011;60683;51.730;8.762;2022-10-16T09:29:46;2.10;;;1.05;;
72639;SDS011;60683;51.730;8.762;2022-10-16T09:32:14;2.60;;;1.15;;
72639;SDS011;60683;51.730;8.762;2022-10-16T09:34:45;2.97;;;1.33;;
72639;SDS011;60683;51.730;8.762;2022-10-16T09:37:17;2.97;;;1.30;;
72639;SDS011;60683;51.730;8.762;2022-10-16T09:39:45;2.80;;;1.02;;
72639;SDS011;60683;51.730;8.762;2022-10-16T09:42:14;1.92;;;1.00;;
72639;SDS011;60683;51.730;8.762;2022-10-16T09:44:42;2.90;;;1.20;;
72639;SDS011;60683;51.730;8.762;2022-10-16T09:47:16;2.47;;;1.45;;
72639;SDS011;60683;51.730;8.762;2022-10-16T09:49:52;1.60;;;0.80;;
72639;SDS011;60683;51.730;8.762;2022-10-16T09:52:21;1.88;;;1.00;;
72639;SDS011;60683;51.730;8.762;2022-10-16T09:54:48;3.08;;;1.27;;
72639;SDS011;60683;51.730;8.762;2022-10-16T09:57:17;2.03;;;1.00;;
72639;SDS011;60683;51.730;8.762;2022-10-16T09:59:47;3.25;;;1.00;;
72639;SDS011;60683;51.730;8.762;2022-10-16T10:02:18;1.73;;;0.93;;
72639;SDS011;60683;51.730;8.762;2022-10-16T10:04:50;2.80;;;1.20;;
72639;SDS011;60683;51.730;8.762;2022-10-16T10:07:23;2.03;;;1.00;;
72639;SDS011;60683;51.730;8.762;2022-10-16T10:09:51;3.30;;;1.20;;
72639;SDS011;60683;51.730;8.762;2022-10-16T10:12:20;2.90;;;1.23;;
72639;SDS011;60683;51.730;8.762;2022-10-16T10:14:49;3.58;;;2.42;;
72639;SDS011;60683;51.730;8.762;2022-10-16T10:17:19;1.67;;;0.90;;
72639;SDS011;60683;51.730;8.762;2022-10-16T10:19:49;2.05;;;1.00;;
72639;SDS011;60683;51.730;8.762;2022-10-16T10:24:54;2.25;;;1.13;;
72639;SDS011;60683;51.730;8.762;2022-10-16T10:27:23;1.90;;;0.95;;
72639;SDS011;60683;51.730;8.762;2022-10-16T10:29:56;4.22;;;1.40;;
72639;SDS011;60683;51.730;8.762;2022-10-16T10:32:30;2.70;;;1.40;;
72639;SDS011;60683;51.730;8.762;2022-10-16T10:35:05;7.15;;;1.20;;
72639;SDS011;60683;51.730;8.762;2022-10-16T10:37:54;1.85;;;0.93;;
72639;SDS011;60683;51.730;8.762;2022-10-16T10:40:31;2.75;;;0.88;;
72639;SDS011;60683;51.730;8.762;2022-10-16T10:43:06;2.38;;;0.90;;
72639;SDS011;60683;51.730;8.762;2022-10-16T10:45:38;2.33;;;0.77;;
72639;SDS011;60683;51.730;8.762;2022-10-16T10:48:22;2.40;;;0.77;;
72639;SDS011;60683;51.730;8.762;2022-10-16T10:50:56;1.85;;;0.60;;
72639;SDS011;60683;51.730;8.762;2022-10-16T10:53:29;2.28;;;0.82;;
72639;SDS011;60683;51.730;8.762;2022-10-16T10:56:06;1.73;;;1.05;;
72639;SDS011;60683;51.730;8.762;2022-10-16T10:58:45;2.08;;;1.02;;
72639;SDS011;60683;51.730;8.762;2022-10-16T11:01:21;1.10;;;0.60;;
72639;SDS011;60683;51.730;8.762;2022-10-16T11:06:46;1.65;;;0.80;;
72639;SDS011;60683;51.730;8.762;2022-10-16T11:09:17;2.50;;;0.95;;
72639;SDS011;60683;51.730;8.762;2022-10-16T11:11:47;2.05;;;0.80;;
72639;SDS011;60683;51.730;8.762;2022-10-16T11:14:18;1.23;;;0.52;;
72639;SDS011;60683;51.730;8.762;2022-10-16T11:16:48;2.20;;;0.80;;
72639;SDS011;60683;51.730;8.762;2022-10-16T11:19:25;1.67;;;0.90;;
72639;SDS011;60683;51.730;8.762;2022-10-16T11:21:59;1.25;;;0.60;;
72639;SDS011;60683;51.730;8.762;2022-10-16T11:24:34;2.10;;;0.75;;
72639;SDS011;60683;51.730;8.762;2022-10-16T11:27:09;2.92;;;0.77;;
72639;SDS011;60683;51.730;8.762;2022-10-16T11:29:42;1.83;;;0.63;;
72639;SDS011;60683;51.730;8.762;2022-10-16T11:32:15;1.67;;;0.70;;
72639;SDS011;60683;51.730;8.762;2022-10-16T11:34:49;0.98;;;0.60;;
72639;SDS011;60683;51.730;8.762;2022-10-16T11:37:19;1.17;;;0.65;;
72639;SDS011;60683;51.730;8.762;2022-10-16T11:39:48;1.77;;;0.60;;
72639;SDS011;60683;51.730;8.762;2022-10-16T11:42:19;1.88;;;0.70;;
72639;SDS011;60683;51.730;8.762;2022-10-16T11:44:51;3.10;;;0.75;;
72639;SDS011;60683;51.730;8.762;2022-10-16T11:47:26;2.67;;;0.75;;
72639;SDS011;60683;51.730;8.762;2022-10-16T11:49:59;2.40;;;0.60;;
72639;SDS011;60683;51.730;8.762;2022-10-16T11:52:30;1.75;;;0.57;;
72639;SDS011;60683;51.730;8.762;2022-10-16T11:55:04;2.63;;;0.55;;
72639;SDS011;60683;51.730;8.762;2022-10-16T11:57:38;1.27;;;0.60;;
72639;SDS011;60683;51.730;8.762;2022-10-16T12:00:08;1.23;;;0.60;;
72639;SDS011;60683;51.730;8.762;2022-10-16T12:02:40;0.70;;;0.50;;
72639;SDS011;60683;51.730;8.762;2022-10-16T12:05:21;1.85;;;0.80;;
72639;SDS011;60683;51.730;8.762;2022-10-16T12:07:54;3.20;;;0.80;;
72639;SDS011;60683;51.730;8.762;2022-10-16T12:10:25;1.67;;;0.60;;
72639;SDS011;60683;51.730;8.762;2022-10-16T12:12:54;1.55;;;0.60;;
72639;SDS011;60683;51.730;8.762;2022-10-16T12:15:23;2.85;;;0.70;;
72639;SDS011;60683;51.730;8.762;2022-10-16T12:17:51;1.08;;;0.70;;
72639;SDS011;60683;51.730;8.762;2022-10-16T12:20:24;1.98;;;0.77;;
72639;SDS011;60683;51.730;8.762;2022-10-16T12:22:56;2.50;;;0.50;;
72639;SDS011;60683;51.730;8.762;2022-10-16T12:25:25;1.45;;;0.55;;
72639;SDS011;60683;51.730;8.762;2022-10-16T12:27:58;1.52;;;0.40;;
72639;SDS011;60683;51.730;8.762;2022-10-16T12:30:30;2.63;;;0.77;;
72639;SDS011;60683;51.730;8.762;2022-10-16T12:32:59;3.38;;;0.73;;
72639;SDS011;60683;51.730;8.762;2022-10-16T12:35:30;2.33;;;0.90;;
72639;SDS011;60683;51.730;8.762;2022-10-16T12:38:06;3.15;;;0.90;;
72639;SDS011;60683;51.730;8.762;2022-10-16T12:40:35;0.90;;;0.57;;
72639;SDS011;60683;51.730;8.762;2022-10-16T12:43:11;1.67;;;0.70;;
72639;SDS011;60683;51.730;8.762;2022-10-16T12:45:39;1.63;;;0.75;;
72639;SDS011;60683;51.730;8.762;2022-10-16T12:48:18;1.45;;;0.70;;
72639;SDS011;60683;51.730;8.762;2022-10-16T12:50:48;4.28;;;0.95;;
72639;SDS011;60683;51.730;8.762;2022-10-16T12:53:19;1.77;;;0.57;;
72639;SDS011;60683;51.730;8.762;2022-10-16T12:55:50;1.85;;;0.65;;
72639;SDS011;60683;51.730;8.762;2022-10-16T12:58:27;2.90;;;0.52;;
72639;SDS011;60683;51.730;8.762;2022-10-16T13:01:04;1.38;;;0.63;;
72639;SDS011;60683;51.730;8.762;2022-10-16T13:03:43;1.63;;;0.50;;
72639;SDS011;60683;51.730;8.762;2022-10-16T13:06:33;1.88;;;0.82;;
72639;SDS011;60683;51.730;8.762;2022-10-16T13:09:16;1.55;;;0.80;;
72639;SDS011;60683;51.730;8.762;2022-10-16T13:11:52;3.65;;;0.77;;
72639;SDS011;60683;51.730;8.762;2022-10-16T13:14:31;1.38;;;0.52;;
72639;SDS011;60683;51.730;8.762;2022-10-16T13:17:08;4.72;;;0.80;;
72639;SDS011;60683;51.730;8.762;2022-10-16T13:19:41;1.52;;;0.65;;
72639;SDS011;60683;51.730;8.762;2022-10-16T13:22:14;1.67;;;0.70;;
72639;SDS011;60683;51.730;8.762;2022-10-16T13:24:48;1.63;;;0.70;;
72639;SDS011;60683;51.730;8.762;2022-10-16T13:27:25;1.60;;;0.52;;
72639;SDS011;60683;51.730;8.762;2022-10-16T13:30:00;2.47;;;0.80;;
72639;SDS011;60683;51.730;8.762;2022-10-16T13:32:29;1.80;;;0.65;;
72639;SDS011;60683;51.730;8.762;2022-10-16T13:34:57;1.63;;;0.70;;
72639;SDS011;60683;51.730;8.762;2022-10-16T13:37:28;1.30;;;0.60;;
72639;SDS011;60683;51.730;8.762;2022-10-16T13:40:02;3.95;;;0.98;;
72639;SDS011;60683;51.730;8.762;2022-10-16T13:42:36;2.03;;;0.88;;
72639;SDS011;60683;51.730;8.762;2022-10-16T13:45:03;2.47;;;1.08;;
72639;SDS011;60683;51.730;8.762;2022-10-16T13:47:31;2.72;;;0.85;;
72639;SDS011;60683;51.730;8.762;2022-10-16T13:50:00;1.98;;;1.17;;
72639;SDS011;60683;51.730;8.762;2022-10-16T13:52:29;3.30;;;0.90;;
72639;SDS011;60683;51.730;8.762;2022-10-16T13:54:57;1.05;;;0.57;;
72639;SDS011;60683;51.730;8.762;2022-10-16T13:57:24;2.15;;;0.73;;
72639;SDS011;60683;51.730;8.762;2022-10-16T13:59:52;2.35;;;0.60;;
72639;SDS011;60683;51.730;8.762;2022-10-16T14:02:20;2.58;;;0.70;;
72639;SDS011;60683;51.730;8.762;2022-10-16T14:04:50;4.07;;;0.90;;
72639;SDS011;60683;51.730;8.762;2022-10-16T14:07:20;2.75;;;0.80;;
72639;SDS011;60683;51.730;8.762;2022-10-16T14:09:52;1.85;;;0.85;;
72639;SDS011;60683;51.730;8.762;2022-10-16T14:12:21;3.55;;;0.70;;
72639;SDS011;60683;51.730;8.762;2022-10-16T14:14:49;2.25;;;0.98;;
72639;SDS011;60683;51.730;8.762;2022-10-16T14:17:18;2.78;;;0.82;;
72639;SDS011;60683;51.730;8.762;2022-10-16T14:19:47;1.92;;;0.82;;
72639;SDS011;60683;51.730;8.762;2022-10-16T14:22:22;1.67;;;0.70;;
72639;SDS011;60683;51.730;8.762;2022-10-16T14:24:55;2.05;;;0.73;;
72639;SDS011;60683;51.730;8.762;2022-10-16T14:27:25;2.40;;;0.80;;
72639;SDS011;60683;51.730;8.762;2022-10-16T14:30:05;3.53;;;0.88;;
72639;SDS011;60683;51.730;8.762;2022-10-16T14:32:39;2.13;;;0.80;;
72639;SDS011;60683;51.730;8.762;2022-10-16T14:35:20;3.03;;;1.00;;
72639;SDS011;60683;51.730;8.762;2022-10-16T14:37:51;2.85;;;0.45;;
72639;SDS011;60683;51.730;8.762;2022-10-16T14:40:20;3.30;;;0.80;;
72639;SDS011;60683;51.730;8.762;2022-10-16T14:42:47;3.35;;;0.90;;
72639;SDS011;60683;51.730;8.762;2022-10-16T14:45:15;2.53;;;1.00;;
72639;SDS011;60683;51.730;8.762;2022-10-16T14:47:50;2.08;;;0.47;;
72639;SDS011;60683;51.730;8.762;2022-10-16T14:50:18;4.28;;;0.75;;
72639;SDS011;60683;51.730;8.762;2022-10-16T14:52:46;2.13;;;0.80;;
72639;SDS011;60683;51.730;8.762;2022-10-16T14:55:13;1.42;;;0.70;;
72639;SDS011;60683;51.730;8.762;2022-10-16T14:57:43;3.53;;;1.05;;
72639;SDS011;60683;51.730;8.762;2022-10-16T15:00:15;2.65;;;0.60;;
72639;SDS011;60683;51.730;8.762;2022-10-16T15:02:44;2.13;;;1.00;;
72639;SDS011;60683;51.730;8.762;2022-10-16T15:05:13;2.17;;;0.90;;
72639;SDS011;60683;51.730;8.762;2022-10-16T15:07:42;2.92;;;0.95;;
72639;SDS011;60683;51.730;8.762;2022-10-16T15:10:09;1.95;;;0.90;;
72639;SDS011;60683;51.730;8.762;2022-10-16T15:12:37;2.75;;;1.23;;
72639;SDS011;60683;51.730;8.762;2022-10-16T15:15:15;1.80;;;0.90;;
72639;SDS011;60683;51.730;8.762;2022-10-16T15:17:58;1.70;;;0.70;;